createdAt,value
2019-02-26T00:02:10.701Z,30.70
2019-02-26T00:04:37.705Z,29.23
2019-02-26T00:07:04.659Z,34.83
2019-02-26T00:09:33.081Z,32.53
2019-02-26T00:11:58.596Z,41.00
2019-02-26T00:14:27.615Z,34.20
2019-02-26T00:16:52.558Z,31.60
2019-02-26T00:19:19.533Z,29.53
2019-02-26T00:21:47.949Z,29.03
2019-02-26T00:24:14.595Z,28.30
2019-02-26T00:26:42.795Z,31.20
2019-02-26T00:29:08.426Z,34.77
2019-02-26T00:31:35.302Z,30.23
2019-02-26T00:34:02.282Z,33.47
2019-02-26T00:36:29.848Z,30.20
2019-02-26T00:38:58.388Z,30.83
2019-02-26T00:41:24.757Z,28.30
2019-02-26T00:43:53.161Z,31.23
2019-02-26T00:46:17.479Z,28.20
2019-02-26T00:48:44.428Z,31.87
2019-02-26T00:51:11.367Z,29.93
2019-02-26T00:53:38.327Z,29.83
2019-02-26T00:56:06.191Z,36.30
2019-02-26T00:58:37.003Z,34.27
2019-02-26T01:00:59.222Z,31.67
2019-02-26T01:03:26.182Z,32.30
2019-02-26T01:05:53.171Z,32.43
2019-02-26T01:08:20.135Z,33.27
2019-02-26T01:10:47.141Z,29.83
2019-02-26T01:13:14.126Z,28.80
2019-02-26T01:15:41.094Z,35.10
2019-02-26T01:18:08.148Z,29.30
2019-02-26T01:20:35.121Z,31.37
2019-02-26T01:23:02.098Z,29.07
2019-02-26T01:25:29.030Z,33.00
2019-02-26T01:27:57.952Z,33.10
2019-02-26T01:30:24.324Z,30.30
2019-02-26T01:32:49.993Z,31.17
2019-02-26T01:35:16.973Z,34.43
2019-02-26T01:37:43.967Z,27.00
2019-02-26T01:40:13.603Z,31.30
2019-02-26T01:42:37.985Z,27.67
2019-02-26T01:45:06.008Z,39.13
2019-02-26T01:47:32.962Z,29.37
2019-02-26T01:49:59.916Z,30.83
2019-02-26T01:52:26.850Z,29.53
2019-02-26T01:54:55.710Z,29.50
2019-02-26T01:57:21.401Z,29.23
2019-02-26T01:59:50.232Z,30.13
2019-02-26T02:02:18.115Z,28.87
2019-02-26T02:04:43.468Z,30.37
2019-02-26T02:07:10.037Z,30.03
2019-02-26T02:09:36.978Z,31.00
2019-02-26T02:12:04.297Z,34.93
2019-02-26T02:14:30.911Z,31.20
2019-02-26T02:16:57.811Z,34.53
2019-02-26T02:19:25.698Z,33.13
2019-02-26T02:21:53.797Z,30.90
2019-02-26T02:24:20.527Z,31.93
2019-02-26T02:26:48.226Z,33.27
2019-02-26T02:29:16.557Z,34.10
2019-02-26T02:31:40.276Z,34.47
2019-02-26T02:34:06.832Z,33.03
2019-02-26T02:36:33.782Z,38.20
2019-02-26T02:39:00.704Z,33.13
2019-02-26T02:41:27.735Z,35.53
2019-02-26T02:43:54.659Z,42.60
2019-02-26T02:46:21.596Z,48.27
2019-02-26T02:48:48.717Z,38.13
2019-02-26T02:51:15.952Z,33.57
2019-02-26T02:53:45.267Z,29.73
2019-02-26T02:56:10.623Z,31.60
2019-02-26T02:58:38.541Z,31.57
2019-02-26T03:01:03.814Z,35.17
2019-02-26T03:03:30.729Z,32.17
2019-02-26T03:05:58.340Z,34.30
2019-02-26T03:08:24.916Z,34.60
2019-02-26T03:10:51.875Z,34.33
2019-02-26T03:13:20.283Z,35.07
2019-02-26T03:15:47.499Z,35.43
2019-02-26T03:18:14.867Z,30.53
2019-02-26T03:20:40.403Z,34.63
2019-02-26T03:23:09.345Z,38.93
2019-02-26T03:25:33.761Z,34.20
2019-02-26T03:28:00.698Z,39.27
2019-02-26T03:30:36.902Z,31.67
2019-02-26T03:33:03.762Z,35.70
2019-02-26T03:35:23.385Z,32.03
2019-02-26T03:37:51.003Z,32.67
2019-02-26T03:40:15.766Z,34.43
2019-02-26T03:42:43.571Z,34.60
2019-02-26T03:45:11.207Z,34.53
2019-02-26T03:47:40.211Z,35.63
2019-02-26T03:50:09.331Z,37.70
2019-02-26T03:52:34.052Z,33.80
2019-02-26T03:55:15.444Z,36.20
2019-02-26T03:57:43.565Z,37.03
2019-02-26T04:00:08.720Z,37.77
2019-02-26T04:02:36.752Z,35.87
2019-02-26T04:05:02.992Z,35.83
2019-02-26T04:07:30.183Z,38.90
2019-02-26T04:09:55.926Z,48.73
2019-02-26T04:12:22.180Z,40.30
2019-02-26T04:14:49.234Z,41.20
2019-02-26T04:17:16.198Z,39.03
2019-02-26T04:19:44.490Z,38.23
2019-02-26T04:22:23.435Z,55.60
2019-02-26T04:24:50.107Z,50.80
2019-02-26T04:27:53.896Z,49.23
2019-02-26T04:31:16.064Z,44.50
2019-02-26T04:33:49.841Z,37.43
2019-02-26T04:36:27.006Z,38.13
2019-02-26T04:39:08.394Z,38.03
2019-02-26T04:44:06.134Z,37.00
2019-02-26T04:46:39.535Z,37.70
2019-02-26T04:49:05.937Z,40.07
2019-02-26T04:51:34.299Z,38.33
2019-02-26T04:54:02.021Z,37.23
2019-02-26T04:56:31.244Z,43.67
2019-02-26T04:58:53.797Z,42.67
2019-02-26T05:01:20.756Z,34.53
2019-02-26T05:03:47.656Z,39.90
2019-02-26T05:06:14.625Z,40.17
2019-02-26T05:08:42.889Z,39.27
2019-02-26T05:11:08.701Z,44.77
2019-02-26T05:13:35.623Z,47.23
2019-02-26T05:16:02.862Z,44.43
2019-02-26T05:18:32.702Z,39.03
2019-02-26T05:20:59.185Z,42.50
2019-02-26T05:23:25.914Z,45.53
2019-02-26T05:28:51.431Z,42.33
2019-02-26T05:31:17.485Z,38.67
2019-02-26T05:33:43.009Z,40.70
2019-02-26T05:36:12.130Z,39.27
2019-02-26T05:38:37.651Z,46.33
2019-02-26T05:41:04.001Z,45.13
2019-02-26T05:43:33.926Z,38.73
2019-02-26T05:46:00.736Z,39.30
2019-02-26T05:48:26.060Z,43.07
2019-02-26T05:50:52.852Z,47.83
2019-02-26T05:53:19.867Z,40.00
2019-02-26T05:55:48.585Z,41.93
2019-02-26T05:58:16.388Z,39.20
2019-02-26T06:00:41.107Z,45.30
2019-02-26T06:03:09.640Z,41.77
2019-02-26T06:05:35.074Z,48.77
2019-02-26T06:08:02.043Z,48.27
2019-02-26T06:10:30.486Z,50.27
2019-02-26T06:12:56.078Z,43.67
2019-02-26T06:15:25.715Z,44.73
2019-02-26T06:17:51.464Z,45.90
2019-02-26T06:20:19.199Z,49.60
2019-02-26T06:22:46.241Z,55.83
2019-02-26T06:25:18.573Z,58.23
2019-02-26T06:27:40.313Z,60.30
2019-02-26T06:30:09.968Z,55.63
2019-02-26T06:32:37.926Z,46.23
2019-02-26T06:35:05.984Z,56.47
2019-02-26T06:37:31.336Z,46.00
2019-02-26T06:39:59.371Z,42.83
2019-02-26T06:42:23.644Z,63.23
2019-02-26T06:44:51.367Z,43.07
2019-02-26T06:47:18.601Z,44.53
2019-02-26T06:49:47.962Z,50.97
2019-02-26T06:52:13.540Z,51.07
2019-02-26T06:54:39.805Z,51.73
2019-02-26T06:57:06.766Z,62.27
2019-02-26T06:59:34.899Z,46.83
2019-02-26T07:02:00.875Z,54.07
2019-02-26T07:04:30.063Z,54.00
2019-02-26T07:06:55.359Z,67.83
2019-02-26T07:09:21.874Z,70.87
2019-02-26T07:11:49.031Z,73.23
2019-02-26T07:14:15.977Z,56.30
2019-02-26T07:16:43.190Z,57.60
2019-02-26T07:19:12.263Z,56.50
2019-02-26T07:21:38.002Z,56.43
2019-02-26T07:24:04.253Z,51.37
2019-02-26T07:26:31.166Z,52.47
2019-02-26T07:28:58.109Z,52.50
2019-02-26T07:31:26.583Z,47.70
2019-02-26T07:33:55.730Z,53.07
2019-02-26T07:36:23.586Z,48.77
2019-02-26T07:38:51.988Z,45.73
2019-02-26T07:41:18.486Z,54.93
2019-02-26T07:43:46.635Z,51.63
2019-02-26T07:46:12.684Z,51.80
2019-02-26T07:48:38.203Z,60.70
2019-02-26T07:51:05.133Z,48.37
2019-02-26T07:53:32.091Z,55.83
2019-02-26T07:56:01.230Z,53.00
2019-02-26T07:58:26.075Z,50.87
2019-02-26T08:00:53.064Z,58.13
2019-02-26T08:03:21.864Z,51.87
2019-02-26T08:05:47.037Z,52.47
2019-02-26T08:08:14.823Z,66.77
2019-02-26T08:10:42.801Z,56.90
2019-02-26T08:13:08.081Z,62.47
2019-02-26T08:15:35.641Z,49.97
2019-02-26T08:18:03.448Z,61.37
2019-02-26T08:20:30.436Z,57.23
2019-02-26T08:22:56.865Z,68.47
2019-02-26T08:25:23.188Z,55.63
2019-02-26T08:27:52.168Z,51.20
2019-02-26T08:30:20.730Z,55.57
2019-02-26T08:32:48.551Z,59.47
2019-02-26T08:35:11.427Z,61.67
2019-02-26T08:37:38.535Z,54.83
2019-02-26T08:40:09.493Z,59.53
2019-02-26T08:42:35.172Z,59.30
2019-02-26T08:45:02.222Z,54.40
2019-02-26T08:47:29.194Z,56.67
2019-02-26T08:49:56.115Z,52.53
2019-02-26T08:52:25.012Z,53.13
2019-02-26T08:54:50.749Z,51.33
2019-02-26T08:57:18.248Z,55.40
2019-02-26T08:59:47.170Z,64.73
2019-02-26T09:02:12.372Z,54.57
2019-02-26T09:04:40.833Z,60.60
2019-02-26T09:07:06.369Z,72.77
2019-02-26T09:14:32.028Z,68.60
2019-02-26T09:16:57.062Z,68.93
2019-02-26T09:19:24.707Z,61.43
2019-02-26T09:21:52.294Z,67.03
2019-02-26T09:24:17.071Z,65.33
2019-02-26T09:26:44.183Z,61.77
2019-02-26T09:29:12.716Z,69.77
2019-02-26T09:31:38.337Z,60.53
2019-02-26T09:34:05.349Z,73.50
2019-02-26T09:36:32.335Z,58.53
2019-02-26T09:38:59.340Z,57.73
2019-02-26T09:41:26.374Z,57.07
2019-02-26T09:43:53.418Z,62.53
2019-02-26T09:46:20.392Z,56.57
2019-02-26T09:48:47.336Z,59.93
2019-02-26T09:51:16.673Z,54.47
2019-02-26T09:53:41.882Z,55.77
2019-02-26T09:56:08.984Z,61.97
2019-02-26T09:58:37.500Z,58.87
2019-02-26T10:01:03.059Z,65.37
2019-02-26T10:03:31.830Z,57.60
2019-02-26T10:05:57.943Z,58.53
2019-02-26T10:08:25.346Z,59.60
2019-02-26T10:10:52.048Z,57.53
2019-02-26T10:13:18.716Z,59.80
2019-02-26T10:15:45.126Z,58.07
2019-02-26T10:18:12.083Z,50.90
2019-02-26T10:20:39.140Z,68.43
2019-02-26T10:23:06.518Z,77.40
2019-02-26T10:25:34.955Z,63.43
2019-02-26T10:28:03.389Z,65.43
2019-02-26T10:30:28.339Z,65.13
2019-02-26T10:32:54.439Z,65.77
2019-02-26T10:35:32.235Z,65.97
2019-02-26T10:37:51.132Z,58.97
2019-02-26T10:40:19.527Z,59.80
2019-02-26T10:42:46.227Z,63.23
2019-02-26T10:45:12.497Z,55.97
2019-02-26T10:47:39.492Z,56.37
2019-02-26T10:50:10.057Z,58.77
2019-02-26T10:52:36.136Z,56.10
2019-02-26T10:55:03.461Z,59.97
2019-02-26T10:57:31.076Z,55.87
2019-02-26T10:59:59.523Z,56.37
2019-02-26T11:02:25.679Z,63.13
2019-02-26T11:04:53.521Z,66.80
2019-02-26T11:07:19.380Z,58.03
2019-02-26T11:09:49.479Z,57.37
2019-02-26T11:12:13.432Z,62.70
2019-02-26T11:14:41.979Z,55.07
2019-02-26T11:17:07.443Z,59.00
2019-02-26T11:19:36.659Z,55.40
2019-02-26T11:22:04.192Z,58.23
2019-02-26T11:24:31.398Z,62.03
2019-02-26T11:26:56.144Z,61.67
2019-02-26T11:29:23.122Z,60.73
2019-02-26T11:31:50.182Z,73.17
2019-02-26T11:34:17.131Z,57.77
2019-02-26T11:36:44.107Z,55.77
2019-02-26T11:39:12.048Z,54.87
2019-02-26T11:41:38.205Z,58.60
2019-02-26T11:44:09.930Z,62.83
2019-02-26T11:46:34.304Z,62.30
2019-02-26T11:48:59.409Z,58.17
2019-02-26T11:51:26.436Z,55.13
2019-02-26T11:53:53.386Z,55.87
2019-02-26T11:56:22.976Z,58.40
2019-02-26T11:58:47.630Z,57.77
2019-02-26T12:01:15.806Z,59.40
2019-02-26T12:03:43.911Z,57.20
2019-02-26T12:06:10.047Z,58.87
2019-02-26T12:08:37.997Z,61.10
2019-02-26T12:11:06.587Z,57.37
2019-02-26T12:13:30.988Z,69.80
2019-02-26T12:15:57.950Z,56.57
2019-02-26T12:18:25.238Z,56.50
2019-02-26T12:20:52.201Z,60.97
2019-02-26T12:23:22.542Z,70.43
2019-02-26T12:25:47.154Z,70.03
2019-02-26T12:28:13.776Z,74.60
2019-02-26T12:30:43.322Z,63.27
2019-02-26T12:33:09.957Z,64.33
2019-02-26T12:35:35.800Z,56.07
2019-02-26T12:38:16.947Z,64.10
2019-02-26T12:40:28.389Z,64.17
2019-02-26T12:42:55.374Z,67.50
2019-02-26T12:45:22.352Z,62.37
2019-02-26T12:47:52.630Z,54.17
2019-02-26T12:50:16.506Z,62.83
2019-02-26T12:52:44.812Z,63.37
2019-02-26T12:55:11.416Z,61.87
2019-02-26T12:57:38.496Z,58.30
2019-02-26T13:00:10.788Z,57.27
2019-02-26T13:02:37.045Z,56.73
2019-02-26T13:05:02.315Z,56.33
2019-02-26T13:07:29.252Z,57.33
2019-02-26T13:10:02.762Z,62.73
2019-02-26T13:12:24.171Z,58.10
2019-02-26T13:14:54.153Z,60.57
2019-02-26T13:17:20.726Z,59.20
2019-02-26T13:19:44.546Z,58.27
2019-02-26T13:22:16.888Z,57.77
2019-02-26T13:24:39.202Z,57.30
2019-02-26T13:27:05.704Z,57.37
2019-02-26T13:29:32.699Z,62.13
2019-02-26T13:32:00.087Z,60.03
2019-02-26T13:34:26.652Z,53.63
2019-02-26T13:36:56.645Z,57.17
2019-02-26T13:39:26.141Z,62.97
2019-02-26T13:41:47.692Z,57.77
2019-02-26T13:44:14.693Z,60.83
2019-02-26T13:46:41.652Z,62.63
2019-02-26T13:49:08.809Z,62.90
2019-02-26T13:51:35.744Z,62.67
2019-02-26T13:54:02.788Z,64.80
2019-02-26T13:56:29.820Z,67.97
2019-02-26T13:58:57.673Z,68.20
2019-02-26T14:01:24.673Z,58.97
2019-02-26T14:03:51.640Z,58.63
2019-02-26T14:06:18.650Z,69.33
2019-02-26T14:08:45.841Z,60.73
2019-02-26T14:11:12.809Z,59.07
2019-02-26T14:13:39.826Z,77.90
2019-02-26T14:16:06.832Z,71.63
2019-02-26T14:18:33.831Z,66.43
2019-02-26T14:21:00.788Z,63.10
2019-02-26T14:23:27.861Z,65.47
2019-02-26T14:25:54.817Z,92.73
2019-02-26T14:28:21.860Z,76.73
2019-02-26T14:30:49.067Z,62.53
2019-02-26T14:33:16.052Z,68.87
2019-02-26T14:35:42.995Z,60.97
2019-02-26T14:38:09.956Z,60.53
2019-02-26T14:40:37.018Z,69.53
2019-02-26T14:43:03.975Z,60.63
2019-02-26T14:45:30.937Z,54.90
2019-02-26T14:47:57.877Z,63.07
2019-02-26T14:50:26.355Z,62.20
2019-02-26T14:52:51.900Z,55.17
2019-02-26T14:55:18.896Z,58.57
2019-02-26T14:57:45.885Z,62.80
2019-02-26T15:00:16.481Z,66.00
2019-02-26T15:02:43.524Z,56.00
2019-02-26T15:05:10.552Z,59.23
2019-02-26T15:07:37.558Z,58.40
2019-02-26T15:10:04.655Z,56.03
2019-02-26T15:12:31.604Z,55.47
2019-02-26T15:14:58.584Z,71.70
2019-02-26T15:17:25.572Z,64.07
2019-02-26T15:19:53.299Z,71.90
2019-02-26T15:22:19.663Z,67.53
2019-02-26T15:24:46.661Z,71.57
2019-02-26T15:27:13.594Z,63.40
2019-02-26T15:29:40.531Z,58.27
2019-02-26T15:32:07.524Z,71.77
2019-02-26T15:34:34.613Z,68.10
2019-02-26T15:37:02.569Z,69.83
2019-02-26T15:39:29.511Z,67.63
2019-02-26T15:41:56.477Z,71.20
2019-02-26T15:44:23.472Z,67.97
2019-02-26T15:46:50.518Z,69.63
2019-02-26T15:49:17.619Z,68.90
2019-02-26T15:51:44.576Z,75.70
2019-02-26T15:54:11.612Z,66.47
2019-02-26T15:56:38.547Z,58.37
2019-02-26T15:59:05.502Z,72.87
2019-02-26T16:01:32.434Z,57.57
2019-02-26T16:03:59.378Z,68.83
2019-02-26T16:06:26.288Z,66.13
2019-02-26T16:08:54.234Z,76.00
2019-02-26T16:11:21.264Z,79.20
2019-02-26T16:13:48.185Z,78.40
2019-02-26T16:16:15.129Z,66.87
2019-02-26T16:18:42.064Z,76.87
2019-02-26T16:21:08.986Z,68.30
2019-02-26T16:23:35.946Z,65.60
2019-02-26T16:26:02.912Z,73.93
2019-02-26T16:28:29.920Z,65.60
2019-02-26T16:30:56.891Z,78.37
2019-02-26T16:33:23.848Z,73.07
2019-02-26T16:35:52.281Z,76.57
2019-02-26T16:38:17.834Z,72.33
2019-02-26T16:40:44.855Z,66.40
2019-02-26T16:43:11.829Z,64.23
2019-02-26T16:45:38.835Z,65.40
2019-02-26T16:48:05.813Z,71.57
2019-02-26T16:50:33.091Z,72.80
2019-02-26T16:53:01.174Z,69.20
2019-02-26T16:55:27.383Z,72.07
2019-02-26T16:57:54.372Z,78.13
2019-02-26T17:00:21.383Z,74.07
2019-02-26T17:02:48.360Z,69.97
2019-02-26T17:05:15.364Z,71.40
2019-02-26T17:07:42.436Z,62.87
2019-02-26T17:10:12.328Z,68.30
2019-02-26T17:12:39.644Z,77.80
2019-02-26T17:15:09.393Z,77.27
2019-02-26T17:17:36.816Z,77.87
2019-02-26T17:20:03.571Z,76.67
2019-02-26T17:22:30.579Z,74.67
2019-02-26T17:24:57.563Z,77.90
2019-02-26T17:27:24.600Z,70.60
2019-02-26T17:29:51.545Z,66.43
2019-02-26T17:32:18.559Z,73.40
2019-02-26T17:34:45.570Z,71.43
2019-02-26T17:37:12.557Z,81.23
2019-02-26T17:39:39.575Z,71.47
2019-02-26T17:42:06.523Z,64.60
2019-02-26T17:44:33.655Z,81.07
2019-02-26T17:47:00.638Z,82.90
2019-02-26T17:49:27.616Z,77.87
2019-02-26T17:51:54.756Z,69.83
2019-02-26T17:54:21.790Z,71.77
2019-02-26T17:56:48.834Z,70.80
2019-02-26T17:59:16.829Z,75.80
2019-02-26T18:01:42.852Z,74.57
2019-02-26T18:04:09.832Z,71.00
2019-02-26T18:06:36.806Z,78.20
2019-02-26T18:09:04.826Z,74.03
2019-02-26T18:11:31.858Z,80.37
2019-02-26T18:14:00.165Z,67.47
2019-02-26T18:16:25.929Z,81.90
2019-02-26T18:18:52.917Z,83.60
2019-02-26T18:21:19.908Z,73.53
2019-02-26T18:23:46.954Z,73.47
2019-02-26T18:26:17.620Z,75.33
2019-02-26T18:28:41.371Z,67.87
2019-02-26T18:31:08.495Z,72.90
2019-02-26T18:33:36.339Z,76.67
2019-02-26T18:36:03.256Z,64.07
2019-02-26T18:38:30.328Z,70.67
2019-02-26T18:41:00.579Z,74.23
2019-02-26T18:43:24.561Z,67.33
2019-02-26T18:45:51.594Z,59.40
2019-02-26T18:48:19.375Z,61.70
2019-02-26T18:50:46.339Z,68.33
2019-02-26T18:53:13.994Z,64.77
2019-02-26T18:55:40.873Z,65.43
2019-02-26T18:58:07.879Z,63.97
2019-02-26T19:00:35.762Z,64.20
2019-02-26T19:03:03.377Z,62.23
2019-02-26T19:05:31.506Z,65.10
2019-02-26T19:07:58.675Z,70.63
2019-02-26T19:10:25.726Z,60.07
2019-02-26T19:12:53.490Z,66.63
2019-02-26T19:15:20.641Z,64.87
2019-02-26T19:17:49.819Z,56.57
2019-02-26T19:20:20.096Z,65.70
2019-02-26T19:22:47.216Z,63.80
2019-02-26T19:25:15.406Z,62.10
2019-02-26T19:27:43.171Z,97.57
2019-02-26T19:30:15.038Z,168.70
2019-02-26T19:32:42.224Z,102.43
2019-02-26T19:35:12.190Z,98.63
2019-02-26T19:37:36.770Z,78.90
2019-02-26T19:40:05.934Z,81.37
2019-02-26T19:42:33.434Z,81.50
2019-02-26T19:45:01.262Z,82.20
2019-02-26T19:47:28.624Z,74.10
2019-02-26T19:49:56.163Z,77.10
2019-02-26T19:52:23.347Z,79.33
2019-02-26T19:54:51.105Z,73.00
2019-02-26T19:57:19.199Z,68.03
2019-02-26T19:59:47.143Z,100.73
2019-02-26T20:02:14.275Z,67.57
2019-02-26T20:04:42.226Z,93.97
2019-02-26T20:07:09.471Z,82.97
2019-02-26T20:09:38.843Z,80.93
2019-02-26T20:12:05.836Z,120.87
2019-02-26T20:14:35.575Z,80.13
2019-02-26T20:17:11.626Z,97.03
2019-02-26T20:19:31.930Z,86.20
2019-02-26T20:21:58.247Z,91.30
2019-02-26T20:24:26.327Z,98.80
2019-02-26T20:26:53.455Z,75.57
2019-02-26T20:29:21.693Z,80.93
2019-02-26T20:31:49.677Z,97.10
2019-02-26T20:34:17.511Z,73.17
2019-02-26T20:36:46.200Z,96.33
2019-02-26T20:39:13.904Z,83.77
2019-02-26T20:41:41.415Z,95.60
2019-02-26T20:44:10.748Z,157.23
2019-02-26T20:46:38.135Z,151.00
2019-02-26T20:49:05.280Z,104.30
2019-02-26T20:51:33.653Z,93.47
2019-02-26T20:54:03.006Z,98.73
2019-02-26T20:56:30.996Z,108.10
2019-02-26T20:58:57.686Z,110.47
2019-02-26T21:01:24.744Z,94.43
2019-02-26T21:03:52.314Z,88.23
2019-02-26T21:06:18.922Z,81.50
2019-02-26T21:08:46.246Z,81.07
2019-02-26T21:11:14.498Z,90.03
2019-02-26T21:13:41.586Z,89.83
2019-02-26T21:16:11.487Z,86.13
2019-02-26T21:18:37.102Z,91.57
2019-02-26T21:21:04.463Z,100.47
2019-02-26T21:23:32.605Z,90.47
2019-02-26T21:26:00.286Z,84.37
2019-02-26T21:28:28.294Z,95.57
2019-02-26T21:30:55.333Z,92.57
2019-02-26T21:33:22.385Z,89.83
2019-02-26T21:35:49.504Z,86.27
2019-02-26T21:38:17.863Z,96.13
2019-02-26T21:40:48.762Z,92.53
2019-02-26T21:43:14.161Z,109.77
2019-02-26T21:45:41.305Z,81.63
2019-02-26T21:48:08.435Z,87.10
2019-02-26T21:50:36.519Z,95.03
2019-02-26T21:53:03.791Z,83.17
2019-02-26T21:55:40.633Z,79.10
2019-02-26T21:57:58.092Z,84.33
2019-02-26T22:00:25.133Z,85.63
2019-02-26T22:02:53.012Z,84.40
2019-02-26T22:05:19.630Z,83.33
2019-02-26T22:07:46.713Z,80.87
2019-02-26T22:10:13.932Z,80.40
2019-02-26T22:12:41.001Z,77.10
2019-02-26T22:15:10.901Z,91.83
2019-02-26T22:17:35.791Z,79.53
2019-02-26T22:20:03.224Z,78.93
2019-02-26T22:22:30.243Z,75.37
2019-02-26T22:24:57.915Z,86.17
2019-02-26T22:27:24.829Z,86.60
2019-02-26T22:29:51.851Z,85.47
2019-02-26T22:32:18.809Z,83.97
2019-02-26T22:34:45.873Z,84.23
2019-02-26T22:37:13.511Z,77.27
2019-02-26T22:39:40.482Z,80.13
2019-02-26T22:42:08.047Z,86.57
2019-02-26T22:44:34.404Z,90.67
2019-02-26T22:47:01.385Z,78.83
2019-02-26T22:49:28.355Z,82.83
2019-02-26T22:51:58.427Z,87.10
2019-02-26T22:54:22.432Z,79.30
2019-02-26T22:56:49.407Z,84.93
2019-02-26T22:59:16.379Z,81.97
2019-02-26T23:01:45.845Z,78.70
2019-02-26T23:04:12.852Z,77.67
2019-02-26T23:06:39.833Z,76.93
2019-02-26T23:09:09.802Z,92.43
2019-02-26T23:11:36.721Z,80.37
2019-02-26T23:14:04.941Z,82.97
2019-02-26T23:16:30.683Z,77.17
2019-02-26T23:18:57.612Z,84.30
2019-02-26T23:21:24.525Z,85.20
2019-02-26T23:23:54.665Z,82.83
2019-02-26T23:26:18.441Z,89.03
2019-02-26T23:28:45.400Z,84.07
2019-02-26T23:31:12.386Z,80.40
2019-02-26T23:33:40.795Z,85.83
2019-02-26T23:36:06.466Z,83.13
2019-02-26T23:38:33.381Z,90.47
2019-02-26T23:41:00.872Z,79.23
2019-02-26T23:43:27.260Z,76.97
2019-02-26T23:45:56.830Z,89.17
2019-02-26T23:48:21.157Z,88.23
2019-02-26T23:50:48.098Z,78.27
2019-02-26T23:53:15.039Z,80.80
2019-02-26T23:55:46.445Z,79.33
2019-02-26T23:58:08.945Z,83.50
